KSNY Airport (Sidney Muni/Lloyd W Carr Field) Information

FAA: SNY - ICAO: KSNY

KSNY Airport Location

State Nebraska
County Cheyenne
City Sidney
KSNY Airport is 3 miles south of Sidney, NE.
Latitude 41-05-59.1390N
Longitude 102-59-05.9750W
Elevation 4,314ft

KSNY Airport METARs

METAR KSNY 071953Z AUTO 00000KT 10SM CLR 09/M11 A3011 RMK AO2 SLP202 T00891111
Altimeter 30.11"
Temperature 8.9°C (48.0°F)
Wind 0° at 0KT
Clouds Skies are clear.
Visibility 10.0mi
Time observed: 2022-12-07T19:53:00Z

KSNY Airport Details

Status Operational
Activation January 1948
Ownership Public
Usage Public
Chart CHEYENNE
ATC on-site No
Beacon schedule sunset-sunrise
Beacon color clear green

KSNY Airport Contacts

Owner SIDNEY AIRPORT AUTHORITY
Owner address PO BOX 490, SIDNEY, NE 69162-0490
Owner phone (308) 254-5058
Manager KEVIN KIEFER
Manager address 11544 W. ROSEDALE RD., PROSSER, NE 68883
Manager phone 402-744-2050

KSNY Airport (Sidney Muni/Lloyd W Carr Field) Radio Frequencies

KSNY (Airport) Radio Frequencies

UNICOM 122.8
Common traffic advisory frequency (CTAF) 122.8